sensor_id;sensor_type;location;lat;lon;timestamp;P1;durP1;ratioP1;P2;durP2;ratioP2
4569;SDS011;2297;51.442;6.996;2024-01-30T00:01:50;10.32;;;6.00;;
4569;SDS011;2297;51.442;6.996;2024-01-30T00:04:16;10.70;;;6.70;;
4569;SDS011;2297;51.442;6.996;2024-01-30T00:06:43;13.55;;;6.93;;
4569;SDS011;2297;51.442;6.996;2024-01-30T00:09:10;10.60;;;6.60;;
4569;SDS011;2297;51.442;6.996;2024-01-30T00:11:37;15.50;;;6.88;;
4569;SDS011;2297;51.442;6.996;2024-01-30T00:14:04;13.95;;;7.38;;
4569;SDS011;2297;51.442;6.996;2024-01-30T00:16:30;13.80;;;6.70;;
4569;SDS011;2297;51.442;6.996;2024-01-30T00:18:58;13.77;;;6.65;;
4569;SDS011;2297;51.442;6.996;2024-01-30T00:21:27;11.60;;;7.05;;
4569;SDS011;2297;51.442;6.996;2024-01-30T00:23:53;14.13;;;6.45;;
4569;SDS011;2297;51.442;6.996;2024-01-30T00:26:20;13.43;;;7.03;;
4569;SDS011;2297;51.442;6.996;2024-01-30T00:28:47;12.85;;;7.03;;
4569;SDS011;2297;51.442;6.996;2024-01-30T00:31:13;12.38;;;6.90;;
4569;SDS011;2297;51.442;6.996;2024-01-30T00:33:40;13.23;;;7.18;;
4569;SDS011;2297;51.442;6.996;2024-01-30T00:36:09;11.30;;;6.57;;
4569;SDS011;2297;51.442;6.996;2024-01-30T00:38:36;11.95;;;7.22;;
4569;SDS011;2297;51.442;6.996;2024-01-30T00:41:03;11.75;;;6.28;;
4569;SDS011;2297;51.442;6.996;2024-01-30T00:43:30;12.57;;;6.50;;
4569;SDS011;2297;51.442;6.996;2024-01-30T00:45:57;13.20;;;6.63;;
4569;SDS011;2297;51.442;6.996;2024-01-30T00:48:24;12.20;;;6.18;;
4569;SDS011;2297;51.442;6.996;2024-01-30T00:50:50;11.05;;;6.78;;
4569;SDS011;2297;51.442;6.996;2024-01-30T00:53:18;13.35;;;7.03;;
4569;SDS011;2297;51.442;6.996;2024-01-30T00:55:45;11.00;;;6.35;;
4569;SDS011;2297;51.442;6.996;2024-01-30T00:58:12;14.82;;;7.57;;
4569;SDS011;2297;51.442;6.996;2024-01-30T01:00:39;12.25;;;6.20;;
4569;SDS011;2297;51.442;6.996;2024-01-30T01:03:06;10.48;;;6.38;;
4569;SDS011;2297;51.442;6.996;2024-01-30T01:05:32;11.93;;;6.35;;
4569;SDS011;2297;51.442;6.996;2024-01-30T01:07:59;13.13;;;6.88;;
4569;SDS011;2297;51.442;6.996;2024-01-30T01:10:27;10.50;;;6.93;;
4569;SDS011;2297;51.442;6.996;2024-01-30T01:12:54;12.57;;;7.25;;
4569;SDS011;2297;51.442;6.996;2024-01-30T01:15:20;9.88;;;6.90;;
4569;SDS011;2297;51.442;6.996;2024-01-30T01:17:47;12.25;;;6.97;;
4569;SDS011;2297;51.442;6.996;2024-01-30T01:20:14;12.75;;;7.47;;
4569;SDS011;2297;51.442;6.996;2024-01-30T01:22:40;9.55;;;6.70;;
4569;SDS011;2297;51.442;6.996;2024-01-30T01:25:08;14.43;;;6.72;;
4569;SDS011;2297;51.442;6.996;2024-01-30T01:27:36;11.95;;;6.57;;
4569;SDS011;2297;51.442;6.996;2024-01-30T01:30:07;12.07;;;6.55;;
4569;SDS011;2297;51.442;6.996;2024-01-30T01:32:36;11.90;;;6.30;;
4569;SDS011;2297;51.442;6.996;2024-01-30T01:35:03;12.48;;;6.90;;
4569;SDS011;2297;51.442;6.996;2024-01-30T01:37:31;11.68;;;6.72;;
4569;SDS011;2297;51.442;6.996;2024-01-30T01:39:58;15.63;;;7.10;;
4569;SDS011;2297;51.442;6.996;2024-01-30T01:42:24;14.30;;;6.50;;
4569;SDS011;2297;51.442;6.996;2024-01-30T01:44:52;12.05;;;7.22;;
4569;SDS011;2297;51.442;6.996;2024-01-30T01:47:19;12.70;;;6.95;;
4569;SDS011;2297;51.442;6.996;2024-01-30T01:49:46;10.00;;;6.90;;
4569;SDS011;2297;51.442;6.996;2024-01-30T01:52:13;14.75;;;6.82;;
4569;SDS011;2297;51.442;6.996;2024-01-30T01:54:40;12.23;;;6.57;;
4569;SDS011;2297;51.442;6.996;2024-01-30T01:57:07;12.93;;;6.78;;
4569;SDS011;2297;51.442;6.996;2024-01-30T01:59:33;10.00;;;6.40;;
4569;SDS011;2297;51.442;6.996;2024-01-30T02:02:02;10.30;;;6.53;;
4569;SDS011;2297;51.442;6.996;2024-01-30T02:04:30;11.23;;;6.63;;
4569;SDS011;2297;51.442;6.996;2024-01-30T02:06:57;12.10;;;6.35;;
4569;SDS011;2297;51.442;6.996;2024-01-30T02:09:23;11.98;;;6.25;;
4569;SDS011;2297;51.442;6.996;2024-01-30T02:11:50;10.93;;;6.47;;
4569;SDS011;2297;51.442;6.996;2024-01-30T02:14:17;12.18;;;6.82;;
4569;SDS011;2297;51.442;6.996;2024-01-30T02:16:43;12.13;;;5.93;;
4569;SDS011;2297;51.442;6.996;2024-01-30T02:19:11;12.52;;;6.70;;
4569;SDS011;2297;51.442;6.996;2024-01-30T02:21:39;12.07;;;6.45;;
4569;SDS011;2297;51.442;6.996;2024-01-30T02:24:06;13.05;;;6.40;;
4569;SDS011;2297;51.442;6.996;2024-01-30T02:26:33;15.40;;;6.88;;
4569;SDS011;2297;51.442;6.996;2024-01-30T02:28:59;13.25;;;6.53;;
4569;SDS011;2297;51.442;6.996;2024-01-30T02:31:26;10.82;;;6.60;;
4569;SDS011;2297;51.442;6.996;2024-01-30T02:33:53;11.30;;;6.50;;
4569;SDS011;2297;51.442;6.996;2024-01-30T02:36:19;11.23;;;6.15;;
4569;SDS011;2297;51.442;6.996;2024-01-30T02:38:47;10.77;;;6.55;;
4569;SDS011;2297;51.442;6.996;2024-01-30T02:41:14;11.50;;;6.22;;
4569;SDS011;2297;51.442;6.996;2024-01-30T02:43:40;18.70;;;6.72;;
4569;SDS011;2297;51.442;6.996;2024-01-30T02:46:07;10.00;;;6.28;;
4569;SDS011;2297;51.442;6.996;2024-01-30T02:48:34;9.23;;;6.38;;
4569;SDS011;2297;51.442;6.996;2024-01-30T02:51:00;10.98;;;6.05;;
4569;SDS011;2297;51.442;6.996;2024-01-30T02:53:27;13.02;;;6.13;;
4569;SDS011;2297;51.442;6.996;2024-01-30T02:55:55;12.75;;;6.97;;
4569;SDS011;2297;51.442;6.996;2024-01-30T02:58:21;11.40;;;6.15;;
4569;SDS011;2297;51.442;6.996;2024-01-30T03:00:48;11.18;;;5.88;;
4569;SDS011;2297;51.442;6.996;2024-01-30T03:03:15;10.27;;;6.20;;
4569;SDS011;2297;51.442;6.996;2024-01-30T03:05:41;10.65;;;5.97;;
4569;SDS011;2297;51.442;6.996;2024-01-30T03:08:08;10.95;;;5.50;;
4569;SDS011;2297;51.442;6.996;2024-01-30T03:10:35;12.13;;;6.50;;
4569;SDS011;2297;51.442;6.996;2024-01-30T03:13:03;12.52;;;6.35;;
4569;SDS011;2297;51.442;6.996;2024-01-30T03:15:30;11.45;;;6.40;;
4569;SDS011;2297;51.442;6.996;2024-01-30T03:17:56;9.20;;;6.25;;
4569;SDS011;2297;51.442;6.996;2024-01-30T03:20:23;9.48;;;6.03;;
4569;SDS011;2297;51.442;6.996;2024-01-30T03:22:50;10.63;;;6.00;;
4569;SDS011;2297;51.442;6.996;2024-01-30T03:25:16;13.40;;;6.40;;
4569;SDS011;2297;51.442;6.996;2024-01-30T03:27:43;9.43;;;5.40;;
4569;SDS011;2297;51.442;6.996;2024-01-30T03:30:11;13.02;;;5.80;;
4569;SDS011;2297;51.442;6.996;2024-01-30T03:32:38;11.77;;;6.05;;
4569;SDS011;2297;51.442;6.996;2024-01-30T03:35:05;10.13;;;5.82;;
4569;SDS011;2297;51.442;6.996;2024-01-30T03:37:32;11.68;;;6.32;;
4569;SDS011;2297;51.442;6.996;2024-01-30T03:39:58;11.65;;;6.10;;
4569;SDS011;2297;51.442;6.996;2024-01-30T03:42:25;10.70;;;5.97;;
4569;SDS011;2297;51.442;6.996;2024-01-30T03:44:52;9.43;;;5.55;;
4569;SDS011;2297;51.442;6.996;2024-01-30T03:47:21;9.57;;;5.65;;
4569;SDS011;2297;51.442;6.996;2024-01-30T03:49:48;11.35;;;5.93;;
4569;SDS011;2297;51.442;6.996;2024-01-30T03:52:14;10.48;;;5.82;;
4569;SDS011;2297;51.442;6.996;2024-01-30T03:54:41;9.90;;;5.50;;
4569;SDS011;2297;51.442;6.996;2024-01-30T03:57:07;7.85;;;5.28;;
4569;SDS011;2297;51.442;6.996;2024-01-30T03:59:34;9.23;;;6.03;;
4569;SDS011;2297;51.442;6.996;2024-01-30T04:02:01;8.43;;;5.45;;
4569;SDS011;2297;51.442;6.996;2024-01-30T04:04:29;10.10;;;5.70;;
4569;SDS011;2297;51.442;6.996;2024-01-30T04:06:55;9.50;;;5.82;;
4569;SDS011;2297;51.442;6.996;2024-01-30T04:09:22;9.00;;;5.22;;
4569;SDS011;2297;51.442;6.996;2024-01-30T04:11:49;10.02;;;5.53;;
4569;SDS011;2297;51.442;6.996;2024-01-30T04:14:15;9.95;;;5.55;;
4569;SDS011;2297;51.442;6.996;2024-01-30T04:16:42;8.93;;;5.78;;
4569;SDS011;2297;51.442;6.996;2024-01-30T04:19:08;9.40;;;5.75;;
4569;SDS011;2297;51.442;6.996;2024-01-30T04:21:36;11.88;;;6.53;;
4569;SDS011;2297;51.442;6.996;2024-01-30T04:24:03;10.43;;;7.07;;
4569;SDS011;2297;51.442;6.996;2024-01-30T04:26:30;14.68;;;7.70;;
4569;SDS011;2297;51.442;6.996;2024-01-30T04:28:57;13.82;;;8.10;;
4569;SDS011;2297;51.442;6.996;2024-01-30T04:31:24;15.68;;;8.63;;
4569;SDS011;2297;51.442;6.996;2024-01-30T04:33:50;14.93;;;8.82;;
4569;SDS011;2297;51.442;6.996;2024-01-30T04:36:17;18.15;;;10.48;;
4569;SDS011;2297;51.442;6.996;2024-01-30T04:38:45;22.17;;;11.20;;
4569;SDS011;2297;51.442;6.996;2024-01-30T04:41:11;26.35;;;12.98;;
4569;SDS011;2297;51.442;6.996;2024-01-30T04:43:38;21.17;;;12.23;;
4569;SDS011;2297;51.442;6.996;2024-01-30T04:46:05;23.80;;;12.13;;
4569;SDS011;2297;51.442;6.996;2024-01-30T04:48:31;24.77;;;13.90;;
4569;SDS011;2297;51.442;6.996;2024-01-30T04:50:58;30.23;;;14.50;;
4569;SDS011;2297;51.442;6.996;2024-01-30T04:53:28;26.33;;;13.73;;
4569;SDS011;2297;51.442;6.996;2024-01-30T04:55:57;26.90;;;14.05;;
4569;SDS011;2297;51.442;6.996;2024-01-30T04:58:23;31.80;;;14.73;;
4569;SDS011;2297;51.442;6.996;2024-01-30T05:00:50;35.55;;;14.18;;
4569;SDS011;2297;51.442;6.996;2024-01-30T05:03:17;30.10;;;13.73;;
4569;SDS011;2297;51.442;6.996;2024-01-30T05:05:43;29.88;;;14.35;;
4569;SDS011;2297;51.442;6.996;2024-01-30T05:08:10;27.50;;;13.43;;
4569;SDS011;2297;51.442;6.996;2024-01-30T05:10:37;29.88;;;13.05;;
4569;SDS011;2297;51.442;6.996;2024-01-30T05:13:05;27.15;;;13.30;;
4569;SDS011;2297;51.442;6.996;2024-01-30T05:15:31;25.85;;;11.95;;
4569;SDS011;2297;51.442;6.996;2024-01-30T05:17:58;24.05;;;11.10;;
4569;SDS011;2297;51.442;6.996;2024-01-30T05:20:24;23.60;;;11.55;;
4569;SDS011;2297;51.442;6.996;2024-01-30T05:22:53;23.27;;;11.15;;
4569;SDS011;2297;51.442;6.996;2024-01-30T05:25:19;19.83;;;10.70;;
4569;SDS011;2297;51.442;6.996;2024-01-30T05:27:46;19.95;;;10.10;;
4569;SDS011;2297;51.442;6.996;2024-01-30T05:30:14;18.42;;;9.93;;
4569;SDS011;2297;51.442;6.996;2024-01-30T05:32:41;15.95;;;9.10;;
4569;SDS011;2297;51.442;6.996;2024-01-30T05:35:07;17.45;;;9.10;;
4569;SDS011;2297;51.442;6.996;2024-01-30T05:37:34;15.45;;;8.45;;
4569;SDS011;2297;51.442;6.996;2024-01-30T05:40:01;15.35;;;8.70;;
4569;SDS011;2297;51.442;6.996;2024-01-30T05:42:28;16.60;;;7.78;;
4569;SDS011;2297;51.442;6.996;2024-01-30T05:44:54;16.63;;;8.38;;
4569;SDS011;2297;51.442;6.996;2024-01-30T05:47:22;15.85;;;7.88;;
4569;SDS011;2297;51.442;6.996;2024-01-30T05:49:49;14.95;;;7.70;;
4569;SDS011;2297;51.442;6.996;2024-01-30T05:52:16;13.82;;;8.02;;
4569;SDS011;2297;51.442;6.996;2024-01-30T05:54:43;14.75;;;7.22;;
4569;SDS011;2297;51.442;6.996;2024-01-30T05:57:10;12.70;;;6.68;;
4569;SDS011;2297;51.442;6.996;2024-01-30T05:59:37;13.73;;;7.20;;
4569;SDS011;2297;51.442;6.996;2024-01-30T06:02:03;10.75;;;6.70;;
4569;SDS011;2297;51.442;6.996;2024-01-30T06:04:31;12.95;;;6.72;;
4569;SDS011;2297;51.442;6.996;2024-01-30T06:06:58;13.75;;;7.03;;
4569;SDS011;2297;51.442;6.996;2024-01-30T06:09:26;11.45;;;6.28;;
4569;SDS011;2297;51.442;6.996;2024-01-30T06:11:53;12.40;;;6.68;;
4569;SDS011;2297;51.442;6.996;2024-01-30T06:14:20;11.80;;;6.35;;
4569;SDS011;2297;51.442;6.996;2024-01-30T06:16:46;11.10;;;6.07;;
4569;SDS011;2297;51.442;6.996;2024-01-30T06:19:13;10.25;;;6.20;;
4569;SDS011;2297;51.442;6.996;2024-01-30T06:21:41;9.60;;;6.20;;
4569;SDS011;2297;51.442;6.996;2024-01-30T06:24:07;9.95;;;5.97;;
4569;SDS011;2297;51.442;6.996;2024-01-30T06:26:34;11.88;;;6.10;;
4569;SDS011;2297;51.442;6.996;2024-01-30T06:29:01;12.82;;;6.28;;
4569;SDS011;2297;51.442;6.996;2024-01-30T06:31:27;11.05;;;5.80;;
4569;SDS011;2297;51.442;6.996;2024-01-30T06:33:54;9.63;;;5.80;;
4569;SDS011;2297;51.442;6.996;2024-01-30T06:36:20;10.95;;;6.28;;
4569;SDS011;2297;51.442;6.996;2024-01-30T06:38:48;11.80;;;5.60;;
4569;SDS011;2297;51.442;6.996;2024-01-30T06:41:15;12.10;;;6.50;;
4569;SDS011;2297;51.442;6.996;2024-01-30T06:43:42;9.50;;;5.25;;
4569;SDS011;2297;51.442;6.996;2024-01-30T06:46:10;9.45;;;6.30;;
4569;SDS011;2297;51.442;6.996;2024-01-30T06:48:36;10.88;;;5.95;;
4569;SDS011;2297;51.442;6.996;2024-01-30T06:51:05;8.52;;;5.70;;
4569;SDS011;2297;51.442;6.996;2024-01-30T06:53:32;8.93;;;5.78;;
4569;SDS011;2297;51.442;6.996;2024-01-30T06:56:00;11.98;;;6.10;;
4569;SDS011;2297;51.442;6.996;2024-01-30T06:58:26;13.35;;;6.13;;
4569;SDS011;2297;51.442;6.996;2024-01-30T07:00:53;11.20;;;6.50;;
4569;SDS011;2297;51.442;6.996;2024-01-30T07:03:20;13.07;;;6.05;;
4569;SDS011;2297;51.442;6.996;2024-01-30T07:05:47;11.65;;;6.15;;
4569;SDS011;2297;51.442;6.996;2024-01-30T07:08:13;12.32;;;5.88;;
4569;SDS011;2297;51.442;6.996;2024-01-30T07:10:42;9.25;;;4.72;;
4569;SDS011;2297;51.442;6.996;2024-01-30T07:13:10;8.38;;;5.68;;
4569;SDS011;2297;51.442;6.996;2024-01-30T07:15:37;15.10;;;5.45;;
4569;SDS011;2297;51.442;6.996;2024-01-30T07:18:04;13.23;;;5.97;;
4569;SDS011;2297;51.442;6.996;2024-01-30T07:20:31;15.50;;;6.18;;
4569;SDS011;2297;51.442;6.996;2024-01-30T07:22:58;11.80;;;5.88;;
4569;SDS011;2297;51.442;6.996;2024-01-30T07:25:25;11.52;;;5.50;;
4569;SDS011;2297;51.442;6.996;2024-01-30T07:27:54;12.25;;;5.63;;
4569;SDS011;2297;51.442;6.996;2024-01-30T07:30:21;13.57;;;5.75;;
4569;SDS011;2297;51.442;6.996;2024-01-30T07:32:48;10.18;;;5.28;;
4569;SDS011;2297;51.442;6.996;2024-01-30T07:35:15;10.75;;;5.63;;
4569;SDS011;2297;51.442;6.996;2024-01-30T07:37:42;6.95;;;5.60;;
4569;SDS011;2297;51.442;6.996;2024-01-30T07:40:08;8.52;;;5.65;;
4569;SDS011;2297;51.442;6.996;2024-01-30T07:42:35;11.05;;;5.95;;
4569;SDS011;2297;51.442;6.996;2024-01-30T07:45:02;11.30;;;5.82;;
4569;SDS011;2297;51.442;6.996;2024-01-30T07:47:30;8.52;;;5.70;;
4569;SDS011;2297;51.442;6.996;2024-01-30T07:49:57;10.95;;;6.07;;
4569;SDS011;2297;51.442;6.996;2024-01-30T07:52:24;9.20;;;5.85;;
4569;SDS011;2297;51.442;6.996;2024-01-30T07:54:51;9.90;;;6.07;;
4569;SDS011;2297;51.442;6.996;2024-01-30T07:57:17;11.50;;;5.93;;
4569;SDS011;2297;51.442;6.996;2024-01-30T07:59:44;11.82;;;5.72;;
4569;SDS011;2297;51.442;6.996;2024-01-30T08:02:11;10.27;;;6.22;;
4569;SDS011;2297;51.442;6.996;2024-01-30T08:04:39;9.32;;;5.88;;
4569;SDS011;2297;51.442;6.996;2024-01-30T08:07:06;10.95;;;6.82;;
4569;SDS011;2297;51.442;6.996;2024-01-30T08:09:33;12.77;;;6.13;;
4569;SDS011;2297;51.442;6.996;2024-01-30T08:11:59;10.52;;;6.15;;
4569;SDS011;2297;51.442;6.996;2024-01-30T08:14:26;14.50;;;6.18;;
4569;SDS011;2297;51.442;6.996;2024-01-30T08:16:53;10.70;;;6.72;;
4569;SDS011;2297;51.442;6.996;2024-01-30T08:19:20;12.68;;;5.97;;
4569;SDS011;2297;51.442;6.996;2024-01-30T08:21:48;9.73;;;5.70;;
4569;SDS011;2297;51.442;6.996;2024-01-30T08:24:15;11.20;;;6.05;;
4569;SDS011;2297;51.442;6.996;2024-01-30T08:26:42;10.70;;;5.72;;
4569;SDS011;2297;51.442;6.996;2024-01-30T08:29:08;9.23;;;5.72;;
4569;SDS011;2297;51.442;6.996;2024-01-30T08:31:35;12.70;;;6.00;;
4569;SDS011;2297;51.442;6.996;2024-01-30T08:34:02;12.77;;;6.13;;
4569;SDS011;2297;51.442;6.996;2024-01-30T08:36:28;14.23;;;6.28;;
4569;SDS011;2297;51.442;6.996;2024-01-30T08:38:56;10.82;;;5.72;;
4569;SDS011;2297;51.442;6.996;2024-01-30T08:41:23;10.80;;;6.32;;
4569;SDS011;2297;51.442;6.996;2024-01-30T08:43:51;10.52;;;6.00;;
4569;SDS011;2297;51.442;6.996;2024-01-30T08:46:19;8.55;;;5.93;;
4569;SDS011;2297;51.442;6.996;2024-01-30T08:48:46;11.10;;;6.15;;
4569;SDS011;2297;51.442;6.996;2024-01-30T08:51:13;11.90;;;5.90;;
4569;SDS011;2297;51.442;6.996;2024-01-30T08:53:40;12.25;;;6.50;;
4569;SDS011;2297;51.442;6.996;2024-01-30T08:56:08;13.18;;;5.97;;
4569;SDS011;2297;51.442;6.996;2024-01-30T08:58:35;11.00;;;5.68;;
4569;SDS011;2297;51.442;6.996;2024-01-30T09:01:01;10.27;;;5.95;;
4569;SDS011;2297;51.442;6.996;2024-01-30T09:03:30;14.40;;;6.88;;
4569;SDS011;2297;51.442;6.996;2024-01-30T09:05:57;12.18;;;6.35;;
4569;SDS011;2297;51.442;6.996;2024-01-30T09:08:23;10.43;;;5.80;;
4569;SDS011;2297;51.442;6.996;2024-01-30T09:10:50;9.57;;;5.88;;
4569;SDS011;2297;51.442;6.996;2024-01-30T09:13:18;11.95;;;6.15;;
4569;SDS011;2297;51.442;6.996;2024-01-30T09:15:45;10.77;;;5.80;;
4569;SDS011;2297;51.442;6.996;2024-01-30T09:18:12;14.18;;;5.65;;
4569;SDS011;2297;51.442;6.996;2024-01-30T09:20:38;13.27;;;6.65;;
4569;SDS011;2297;51.442;6.996;2024-01-30T09:23:05;9.25;;;5.75;;
4569;SDS011;2297;51.442;6.996;2024-01-30T09:25:31;15.30;;;6.03;;
4569;SDS011;2297;51.442;6.996;2024-01-30T09:27:59;12.65;;;5.90;;
4569;SDS011;2297;51.442;6.996;2024-01-30T09:30:27;10.95;;;6.22;;
4569;SDS011;2297;51.442;6.996;2024-01-30T09:32:54;12.05;;;5.90;;
4569;SDS011;2297;51.442;6.996;2024-01-30T09:35:20;10.13;;;6.30;;
4569;SDS011;2297;51.442;6.996;2024-01-30T09:37:47;9.50;;;6.00;;
4569;SDS011;2297;51.442;6.996;2024-01-30T09:40:14;9.52;;;5.68;;
4569;SDS011;2297;51.442;6.996;2024-01-30T09:42:44;12.95;;;6.45;;
4569;SDS011;2297;51.442;6.996;2024-01-30T09:45:14;14.00;;;7.00;;
4569;SDS011;2297;51.442;6.996;2024-01-30T09:47:42;11.43;;;6.13;;
4569;SDS011;2297;51.442;6.996;2024-01-30T09:50:11;11.82;;;6.28;;
4569;SDS011;2297;51.442;6.996;2024-01-30T09:52:39;10.20;;;5.90;;
4569;SDS011;2297;51.442;6.996;2024-01-30T09:55:06;12.32;;;5.93;;
4569;SDS011;2297;51.442;6.996;2024-01-30T09:57:33;10.07;;;6.40;;
4569;SDS011;2297;51.442;6.996;2024-01-30T10:00:00;9.75;;;6.30;;
4569;SDS011;2297;51.442;6.996;2024-01-30T10:02:28;10.50;;;6.13;;
4569;SDS011;2297;51.442;6.996;2024-01-30T10:04:55;11.20;;;6.10;;
4569;SDS011;2297;51.442;6.996;2024-01-30T10:07:22;9.85;;;5.65;;
4569;SDS011;2297;51.442;6.996;2024-01-30T10:09:49;9.57;;;5.75;;
4569;SDS011;2297;51.442;6.996;2024-01-30T10:12:15;12.88;;;5.68;;
4569;SDS011;2297;51.442;6.996;2024-01-30T10:14:42;12.48;;;6.20;;
4569;SDS011;2297;51.442;6.996;2024-01-30T10:17:09;11.57;;;5.68;;
4569;SDS011;2297;51.442;6.996;2024-01-30T10:19:37;10.18;;;5.43;;
4569;SDS011;2297;51.442;6.996;2024-01-30T10:22:05;8.68;;;5.63;;
4569;SDS011;2297;51.442;6.996;2024-01-30T10:24:33;9.18;;;5.78;;
4569;SDS011;2297;51.442;6.996;2024-01-30T10:27:00;8.55;;;5.45;;
4569;SDS011;2297;51.442;6.996;2024-01-30T10:29:27;11.52;;;5.57;;
4569;SDS011;2297;51.442;6.996;2024-01-30T10:31:57;10.80;;;5.78;;
4569;SDS011;2297;51.442;6.996;2024-01-30T10:34:25;11.05;;;6.20;;
4569;SDS011;2297;51.442;6.996;2024-01-30T10:36:54;8.90;;;5.22;;
4569;SDS011;2297;51.442;6.996;2024-01-30T10:39:27;12.27;;;5.72;;
4569;SDS011;2297;51.442;6.996;2024-01-30T10:41:56;10.63;;;6.10;;
4569;SDS011;2297;51.442;6.996;2024-01-30T10:44:29;10.37;;;6.20;;
4569;SDS011;2297;51.442;6.996;2024-01-30T10:47:03;13.40;;;6.38;;
4569;SDS011;2297;51.442;6.996;2024-01-30T10:49:34;10.00;;;5.72;;
4569;SDS011;2297;51.442;6.996;2024-01-30T10:52:01;9.45;;;5.60;;
4569;SDS011;2297;51.442;6.996;2024-01-30T10:54:31;10.63;;;5.90;;
4569;SDS011;2297;51.442;6.996;2024-01-30T10:57:00;17.10;;;6.47;;
4569;SDS011;2297;51.442;6.996;2024-01-30T10:59:28;12.35;;;6.13;;
4569;SDS011;2297;51.442;6.996;2024-01-30T11:01:56;8.70;;;5.43;;
4569;SDS011;2297;51.442;6.996;2024-01-30T11:04:23;13.63;;;6.75;;
4569;SDS011;2297;51.442;6.996;2024-01-30T11:06:50;9.35;;;5.90;;
4569;SDS011;2297;51.442;6.996;2024-01-30T11:09:17;11.30;;;6.47;;
4569;SDS011;2297;51.442;6.996;2024-01-30T11:11:50;13.75;;;6.00;;
4569;SDS011;2297;51.442;6.996;2024-01-30T11:14:22;14.48;;;6.38;;
4569;SDS011;2297;51.442;6.996;2024-01-30T11:16:50;10.20;;;5.72;;
4569;SDS011;2297;51.442;6.996;2024-01-30T11:19:22;14.38;;;6.57;;
4569;SDS011;2297;51.442;6.996;2024-01-30T11:21:50;13.18;;;6.32;;
4569;SDS011;2297;51.442;6.996;2024-01-30T11:24:19;10.70;;;5.70;;
4569;SDS011;2297;51.442;6.996;2024-01-30T11:26:47;11.77;;;6.05;;
4569;SDS011;2297;51.442;6.996;2024-01-30T11:29:16;27.17;;;6.13;;
4569;SDS011;2297;51.442;6.996;2024-01-30T11:31:51;12.75;;;6.03;;
4569;SDS011;2297;51.442;6.996;2024-01-30T11:34:18;11.45;;;6.00;;
4569;SDS011;2297;51.442;6.996;2024-01-30T11:36:45;8.95;;;5.53;;
4569;SDS011;2297;51.442;6.996;2024-01-30T11:39:20;13.65;;;6.20;;
4569;SDS011;2297;51.442;6.996;2024-01-30T11:41:47;13.02;;;6.38;;
4569;SDS011;2297;51.442;6.996;2024-01-30T11:44:18;15.02;;;6.75;;
4569;SDS011;2297;51.442;6.996;2024-01-30T11:46:46;19.13;;;6.57;;
4569;SDS011;2297;51.442;6.996;2024-01-30T11:49:13;13.57;;;6.50;;
4569;SDS011;2297;51.442;6.996;2024-01-30T11:51:39;11.38;;;6.18;;
4569;SDS011;2297;51.442;6.996;2024-01-30T11:54:07;11.85;;;6.25;;
4569;SDS011;2297;51.442;6.996;2024-01-30T11:56:33;12.95;;;6.70;;
4569;SDS011;2297;51.442;6.996;2024-01-30T11:59:00;11.60;;;6.20;;
4569;SDS011;2297;51.442;6.996;2024-01-30T12:01:28;12.60;;;6.32;;
4569;SDS011;2297;51.442;6.996;2024-01-30T12:03:55;10.32;;;6.20;;
4569;SDS011;2297;51.442;6.996;2024-01-30T12:06:23;15.32;;;6.65;;
4569;SDS011;2297;51.442;6.996;2024-01-30T12:08:56;13.45;;;6.10;;
4569;SDS011;2297;51.442;6.996;2024-01-30T12:11:24;16.55;;;6.38;;
4569;SDS011;2297;51.442;6.996;2024-01-30T12:13:50;10.77;;;5.80;;
4569;SDS011;2297;51.442;6.996;2024-01-30T12:16:17;10.60;;;6.20;;
4569;SDS011;2297;51.442;6.996;2024-01-30T12:18:46;14.35;;;6.70;;
4569;SDS011;2297;51.442;6.996;2024-01-30T12:21:15;14.10;;;6.68;;
4569;SDS011;2297;51.442;6.996;2024-01-30T12:23:42;14.48;;;6.65;;
4569;SDS011;2297;51.442;6.996;2024-01-30T12:26:09;12.57;;;6.65;;
4569;SDS011;2297;51.442;6.996;2024-01-30T12:28:46;12.02;;;6.63;;
4569;SDS011;2297;51.442;6.996;2024-01-30T12:31:13;12.52;;;6.63;;
4569;SDS011;2297;51.442;6.996;2024-01-30T12:33:40;14.02;;;5.95;;
4569;SDS011;2297;51.442;6.996;2024-01-30T12:36:08;15.82;;;6.97;;
4569;SDS011;2297;51.442;6.996;2024-01-30T12:38:35;13.60;;;7.10;;
4569;SDS011;2297;51.442;6.996;2024-01-30T12:41:02;12.00;;;6.65;;
4569;SDS011;2297;51.442;6.996;2024-01-30T12:43:29;15.70;;;7.07;;
4569;SDS011;2297;51.442;6.996;2024-01-30T12:45:56;16.80;;;7.03;;
4569;SDS011;2297;51.442;6.996;2024-01-30T12:48:23;10.85;;;6.07;;
4569;SDS011;2297;51.442;6.996;2024-01-30T12:50:50;17.85;;;6.85;;
4569;SDS011;2297;51.442;6.996;2024-01-30T12:53:18;13.95;;;6.43;;
4569;SDS011;2297;51.442;6.996;2024-01-30T12:55:45;12.23;;;6.65;;
4569;SDS011;2297;51.442;6.996;2024-01-30T12:58:12;19.00;;;6.50;;
4569;SDS011;2297;51.442;6.996;2024-01-30T13:00:38;15.20;;;7.22;;
4569;SDS011;2297;51.442;6.996;2024-01-30T13:03:05;13.70;;;6.85;;
4569;SDS011;2297;51.442;6.996;2024-01-30T13:05:33;14.18;;;6.40;;
4569;SDS011;2297;51.442;6.996;2024-01-30T13:08:00;15.55;;;6.90;;
4569;SDS011;2297;51.442;6.996;2024-01-30T13:10:28;14.23;;;7.32;;
4569;SDS011;2297;51.442;6.996;2024-01-30T13:12:55;14.98;;;6.63;;
4569;SDS011;2297;51.442;6.996;2024-01-30T13:15:21;12.15;;;7.00;;
4569;SDS011;2297;51.442;6.996;2024-01-30T13:17:48;16.50;;;6.78;;
4569;SDS011;2297;51.442;6.996;2024-01-30T13:20:15;12.20;;;6.85;;
4569;SDS011;2297;51.442;6.996;2024-01-30T13:22:44;13.77;;;6.75;;
4569;SDS011;2297;51.442;6.996;2024-01-30T13:25:11;19.17;;;6.40;;
4569;SDS011;2297;51.442;6.996;2024-01-30T13:27:39;12.98;;;6.95;;
4569;SDS011;2297;51.442;6.996;2024-01-30T13:30:07;25.48;;;8.77;;
4569;SDS011;2297;51.442;6.996;2024-01-30T13:32:34;17.42;;;7.25;;
4569;SDS011;2297;51.442;6.996;2024-01-30T13:35:01;19.77;;;6.85;;
4569;SDS011;2297;51.442;6.996;2024-01-30T13:37:28;15.23;;;6.80;;
4569;SDS011;2297;51.442;6.996;2024-01-30T13:39:55;12.85;;;6.60;;
4569;SDS011;2297;51.442;6.996;2024-01-30T13:42:22;11.85;;;7.70;;
4569;SDS011;2297;51.442;6.996;2024-01-30T13:44:50;14.68;;;6.93;;
4569;SDS011;2297;51.442;6.996;2024-01-30T13:47:17;12.05;;;6.55;;
4569;SDS011;2297;51.442;6.996;2024-01-30T13:49:46;12.80;;;6.53;;
4569;SDS011;2297;51.442;6.996;2024-01-30T13:52:13;12.70;;;7.20;;
4569;SDS011;2297;51.442;6.996;2024-01-30T13:54:39;19.95;;;7.18;;
4569;SDS011;2297;51.442;6.996;2024-01-30T13:57:06;12.07;;;6.47;;
4569;SDS011;2297;51.442;6.996;2024-01-30T13:59:33;11.77;;;7.45;;
4569;SDS011;2297;51.442;6.996;2024-01-30T14:02:01;15.20;;;7.05;;
4569;SDS011;2297;51.442;6.996;2024-01-30T14:04:28;12.52;;;7.05;;
4569;SDS011;2297;51.442;6.996;2024-01-30T14:06:55;18.33;;;7.50;;
4569;SDS011;2297;51.442;6.996;2024-01-30T14:09:22;13.05;;;6.22;;
4569;SDS011;2297;51.442;6.996;2024-01-30T14:11:49;15.25;;;7.18;;
4569;SDS011;2297;51.442;6.996;2024-01-30T14:14:15;13.00;;;7.15;;
4569;SDS011;2297;51.442;6.996;2024-01-30T14:16:42;13.35;;;7.30;;
4569;SDS011;2297;51.442;6.996;2024-01-30T14:19:10;12.23;;;7.43;;
4569;SDS011;2297;51.442;6.996;2024-01-30T14:21:37;11.85;;;6.57;;
4569;SDS011;2297;51.442;6.996;2024-01-30T14:24:03;13.77;;;6.85;;
4569;SDS011;2297;51.442;6.996;2024-01-30T14:26:30;17.42;;;7.43;;
4569;SDS011;2297;51.442;6.996;2024-01-30T14:28:57;11.77;;;6.85;;
4569;SDS011;2297;51.442;6.996;2024-01-30T14:31:23;11.70;;;6.95;;
4569;SDS011;2297;51.442;6.996;2024-01-30T14:33:50;17.63;;;7.40;;
4569;SDS011;2297;51.442;6.996;2024-01-30T14:36:18;16.40;;;6.90;;
4569;SDS011;2297;51.442;6.996;2024-01-30T14:38:45;12.57;;;6.88;;
4569;SDS011;2297;51.442;6.996;2024-01-30T14:41:12;18.05;;;7.93;;
4569;SDS011;2297;51.442;6.996;2024-01-30T14:43:38;12.82;;;7.43;;
4569;SDS011;2297;51.442;6.996;2024-01-30T14:46:05;12.35;;;7.53;;
4569;SDS011;2297;51.442;6.996;2024-01-30T14:48:32;11.20;;;6.43;;
4569;SDS011;2297;51.442;6.996;2024-01-30T14:50:59;11.98;;;6.80;;
4569;SDS011;2297;51.442;6.996;2024-01-30T14:53:27;13.82;;;7.55;;
4569;SDS011;2297;51.442;6.996;2024-01-30T14:55:54;19.83;;;7.63;;
4569;SDS011;2297;51.442;6.996;2024-01-30T14:58:20;12.35;;;6.80;;
4569;SDS011;2297;51.442;6.996;2024-01-30T15:00:47;15.57;;;6.95;;
4569;SDS011;2297;51.442;6.996;2024-01-30T15:03:14;16.30;;;7.47;;